Decoded Metar for USSS (SVERDLOVSK in RUSSIA) (IATA:SVX) | Meteo·Mobile Aviation Weather
aviador You're here:

USSS Decoded Metar

SVERDLOVSK in RUSSIA
Report Time2018-12-19 01:00:00
UTC Time2018-12-19 01:17:54
Flight Rules lifr LIFR
Wind280° at 14 kt
W.Decomp.*RWY 26: 13.9 kt HW 1.5 kt RCW
W.Rank280° ranks 4
Current wind is above 280° avg. (10.0)
Visibility9999 m
Phenomena:Light Snow
Clouds:Broken 004 Hf
Scattered 005 Hf
Expected CloudBase > 800 ft AGL from Temp-Dew spread
Ceiling400 ft
Temp-9°C (ISA -22)
Dew Point-11°C (86% RH)
AAT-17.2°C
QNH1028 hPa
Density Alt-2,510 ft
Elevation764 ft
Report Wrong Elevation
Raw Report
USSS 190100Z 28007MPS 9999 -SN SCT005 M09/M11 Q1028 R26R/390035
TEMPO BKN004 RMK QFE750/1000=

Extra information for USSS:More info

Metar Taf Metar & Taf Last 4 Metars F.Rules Stats Wind Profile Meteogram Temp Stats Airport Information Weather charts Add Link Nearby VenuesMetar ALERT Operation Metar Decoded Social comments